Tropical Cyclones
[Index]
Main Index Home Page Stock Weather Photos Extreme Storms Discussion Storm News and Storm Chasing Reports Tropical Cyclones / Hurricanes / Typhoons Weather Data and Links Wild Fires / Bushfires Weather Observation Techniques Weather Picture Catalogue Tornado Pictures and Reports Stock Video Footage and DVDs for sale
Season 1970-1971 Tropical Cyclone MAVIS Track Map
Season 1970-1971 Summaries: [BoM-AU] [JTWC-AU] [JTWC-SIO] [JTWC-SPAC] [JTWC-SH]
<<- Previous TC | BoM 1970-1971 Season | Next TC ->>

click for intensity scale information  Lat/long Grid: Show Hide

 Date Labels: Show Hide

Bureau of Meteorology Tropical Cyclone Data

Name: MAVIS
Number: 481 / 197071_20

23 Mar 1971 00:00 UTC to 29 Mar 1971 00:00 UTC

    date/time    lat    long    hPa   cat  kts
1971-03-23 00   17.0   121.3   1003                     
1971-03-23 03   17.0   120.5   1002                     
1971-03-23 06   17.0   120.0   1001                     
1971-03-23 09   17.0   119.5   1000                     
1971-03-23 12   17.0   119.0    999                     
1971-03-23 15   17.0   118.5    999                     
1971-03-23 18   17.0   118.0    998                     
1971-03-23 21   17.0   117.5    998                     
1971-03-24 00   17.0   117.1    997                     
1971-03-24 03   17.1   116.7    997                     
1971-03-24 06   17.2   116.2    997                     
1971-03-24 09   17.3   115.7    997                     
1971-03-24 12   17.4   115.2    997                     
1971-03-24 15   17.5   114.8    996                     
1971-03-24 18   17.6   114.4    996                     
1971-03-24 21   17.8   114.2    996                     
1971-03-25 00   18.0   114.0    996                     
1971-03-25 03   18.2   113.8    995    1                
1971-03-25 06   18.5   113.5    994    1                
1971-03-25 09   18.9   112.9    993    1                
1971-03-25 12   19.2   112.5    992    1                
1971-03-25 15   19.5   111.0    990    1                
1971-03-25 18   19.6   110.3    985    2                
1971-03-25 21   19.8   109.5    980    2                
1971-03-26 00   20.0   108.9    975    2                
1971-03-26 03   20.2   108.5    975    2                
1971-03-26 06   20.5   107.9    975    2                
1971-03-26 09   20.8   107.3    975    2                
1971-03-26 12   21.1   106.6    975    2                
1971-03-26 15   21.4   106.0    975    2                
1971-03-26 18   21.7   105.5    975    2                
1971-03-26 21   22.0   105.0    975    2                
1971-03-27 00   22.5   105.3    976    2                
1971-03-27 03   23.3   106.7    977    2                
1971-03-27 06   23.9   107.8    978    2                
1971-03-27 09   24.1   108.5    979    2                
1971-03-27 12   24.5   110.0    981    2                
1971-03-27 15   24.9   111.0    983    2                
1971-03-27 18   25.4   112.0    986    1                
1971-03-27 21   26.2   113.3    988    1                
1971-03-28 00   26.6   114.1    990    1                
1971-03-28 03   27.5   116.0    991    1                
1971-03-28 06   29.1   118.2    992    1                
1971-03-28 09   29.5   120.0    995    1                
1971-03-28 12   30.0   122.0    998                     
1971-03-28 15   30.5   124.0   1001                     
1971-03-28 18   31.0   126.0   1004                     
1971-03-28 21   31.5   128.0   1006                     
1971-03-29 00   31.3   130.0   1007                     
Winds are 10-min average.

Tropical cyclone tracks developed by Michael Bath using data from the Bureau of Meteorology and Google Maps.


[Australian Severe Weather index] [Copyright Notice] [Email Contacts] [Search This Site] [Privacy Policy]
Document: tropical_cyclone_mavis.htm Updated: 30 May 2013